Time;durP1;ratioP1;P1;durP2;ratioP2;P2;SDS_P1;SDS_P2;PMS_P1;PMS_P2;Temp;Humidity;BMP_temperature;BMP_pressure;BME280_temperature;BME280_humidity;BME280_pressure;Samples;Min_cycle;Max_cycle;Signal;HPM_P1;HPM_P2
2021/09/20 00:00:36;;;;;;;;;;;13.70;99.90;;;;;;4922998;28;19934;-80
2021/09/20 00:03:03;;;;;;;;;;;13.70;99.90;;;;;;4927321;29;19939;-81
2021/09/20 00:05:31;;;;;;;;;;;13.60;99.90;;;;;;4926569;29;19935;-81
2021/09/20 00:07:58;;;;;;;;;;;13.60;99.90;;;;;;4926076;29;19935;-82
2021/09/20 00:10:24;;;;;;;;;;;13.60;99.90;;;;;;4924866;29;19926;-82
2021/09/20 00:12:51;;;;;;;;;;;13.60;99.90;;;;;;4927166;29;20039;-81
2021/09/20 00:15:18;;;;;;;;;;;13.60;99.90;;;;;;4927861;28;19927;-81
2021/09/20 00:17:45;;;;;;;;;;;13.50;99.90;;;;;;4927244;28;19942;-81
2021/09/20 00:20:13;;;;;;;;;;;13.50;99.90;;;;;;4925877;29;19927;-80
2021/09/20 00:22:41;;;;;;;;;;;13.50;99.90;;;;;;4927147;28;19926;-81
2021/09/20 00:25:08;;;;;;;;;;;13.50;99.90;;;;;;4922873;29;19946;-80
2021/09/20 00:27:35;;;;;;;;;;;13.50;99.90;;;;;;4925213;29;19927;-80
2021/09/20 00:30:03;;;;;;;;;;;13.50;99.90;;;;;;4925179;29;20013;-80
2021/09/20 00:32:29;;;;;;;;;;;13.50;99.90;;;;;;4925814;29;20364;-80
2021/09/20 00:34:56;;;;;;;;;;;13.50;99.90;;;;;;4927920;29;19927;-80
2021/09/20 00:37:23;;;;;;;;;;;13.40;99.90;;;;;;4928097;29;20009;-81
2021/09/20 00:39:51;;;;;;;;;;;13.40;99.90;;;;;;4929787;28;20017;-80
2021/09/20 00:42:17;;;;;;;;;;;13.50;99.90;;;;;;4926818;29;20369;-81
2021/09/20 00:44:44;;;;;;;;;;;13.50;99.90;;;;;;4927670;29;20281;-81
2021/09/20 00:47:11;;;;;;;;;;;13.50;99.90;;;;;;4927609;29;19937;-81
2021/09/20 00:49:39;;;;;;;;;;;13.50;99.90;;;;;;4932625;29;19933;-81
2021/09/20 00:52:05;;;;;;;;;;;13.60;99.90;;;;;;4924191;29;19981;-81
2021/09/20 00:54:32;;;;;;;;;;;13.60;99.90;;;;;;4926707;29;19934;-78
2021/09/20 00:57:01;;;;;;;;;;;13.60;99.90;;;;;;4931148;28;19927;-80
2021/09/20 00:59:27;;;;;;;;;;;13.60;99.90;;;;;;4930512;29;19937;-81
2021/09/20 01:01:54;;;;;;;;;;;13.60;99.90;;;;;;4924087;29;19927;-80
2021/09/20 01:04:21;;;;;;;;;;;13.50;99.90;;;;;;4927410;29;19931;-80
2021/09/20 01:06:48;;;;;;;;;;;13.50;99.90;;;;;;4929918;29;19950;-80
2021/09/20 01:09:14;;;;;;;;;;;13.50;99.90;;;;;;4928388;28;19935;-79
2021/09/20 01:11:41;;;;;;;;;;;13.50;99.90;;;;;;4924191;29;20377;-80
2021/09/20 01:14:09;;;;;;;;;;;13.40;99.90;;;;;;4927616;29;19930;-80
2021/09/20 01:16:36;;;;;;;;;;;13.40;99.90;;;;;;4928994;29;19941;-80
2021/09/20 01:19:03;;;;;;;;;;;13.40;99.90;;;;;;4928761;28;20065;-80
2021/09/20 01:21:29;;;;;;;;;;;13.40;99.90;;;;;;4929698;29;20022;-80
2021/09/20 01:23:57;;;;;;;;;;;13.40;99.90;;;;;;4924339;28;20017;-80
2021/09/20 01:26:24;;;;;;;;;;;13.30;99.90;;;;;;4930375;28;19927;-80
2021/09/20 01:28:50;;;;;;;;;;;13.30;99.90;;;;;;4929027;29;19937;-80
2021/09/20 01:31:17;;;;;;;;;;;13.20;99.90;;;;;;4925935;29;20480;-80
2021/09/20 01:33:44;;;;;;;;;;;13.20;99.90;;;;;;4929143;29;19935;-81
2021/09/20 01:36:11;;;;;;;;;;;13.10;99.90;;;;;;4935152;28;20010;-80
2021/09/20 01:38:37;;;;;;;;;;;13.10;99.90;;;;;;4933060;29;20300;-80
2021/09/20 01:41:06;;;;;;;;;;;13.10;99.90;;;;;;4927587;29;20300;-80
2021/09/20 01:43:33;;;;;;;;;;;13.00;99.90;;;;;;4927008;29;19934;-81
2021/09/20 01:45:59;;;;;;;;;;;13.00;99.90;;;;;;4927403;29;19941;-81
2021/09/20 01:48:26;;;;;;;;;;;13.00;99.90;;;;;;4930780;29;20042;-80
2021/09/20 01:50:53;;;;;;;;;;;13.00;99.90;;;;;;4928451;29;20017;-80
2021/09/20 01:53:19;;;;;;;;;;;12.90;99.90;;;;;;4929598;29;19927;-80
2021/09/20 01:55:46;;;;;;;;;;;12.90;99.90;;;;;;4929792;28;20373;-80
2021/09/20 01:58:14;;;;;;;;;;;12.80;99.90;;;;;;4931763;29;19927;-80
2021/09/20 02:00:43;;;;;;;;;;;12.80;99.90;;;;;;4929402;29;19927;-80
2021/09/20 02:03:11;;;;;;;;;;;12.80;99.90;;;;;;4925721;29;19927;-81
2021/09/20 02:05:37;;;;;;;;;;;12.80;99.90;;;;;;4928803;28;19954;-80
2021/09/20 02:08:04;;;;;;;;;;;12.80;99.90;;;;;;4930155;28;19927;-82
2021/09/20 02:10:31;;;;;;;;;;;12.70;99.90;;;;;;4932011;29;19931;-82
2021/09/20 02:12:57;;;;;;;;;;;12.70;99.90;;;;;;4930125;29;19927;-81
2021/09/20 02:15:25;;;;;;;;;;;12.60;99.90;;;;;;4926713;29;19931;-83
2021/09/20 02:17:52;;;;;;;;;;;12.60;99.90;;;;;;4930212;29;19933;-81
2021/09/20 02:20:19;;;;;;;;;;;12.50;99.90;;;;;;4932595;29;19949;-82
2021/09/20 02:22:46;;;;;;;;;;;12.50;99.90;;;;;;4927006;29;19927;-82
2021/09/20 02:25:13;;;;;;;;;;;12.50;99.90;;;;;;4930493;29;19939;-82
2021/09/20 02:27:39;;;;;;;;;;;12.50;99.90;;;;;;4930880;29;20385;-81
2021/09/20 02:30:07;;;;;;;;;;;12.50;99.90;;;;;;4925128;28;20520;-81
2021/09/20 02:32:35;;;;;;;;;;;12.50;99.90;;;;;;4928617;28;19933;-80
2021/09/20 02:35:02;;;;;;;;;;;12.50;99.90;;;;;;4929198;29;20492;-81
2021/09/20 02:37:29;;;;;;;;;;;12.40;99.90;;;;;;4929537;28;19926;-81
2021/09/20 02:39:56;;;;;;;;;;;12.40;99.90;;;;;;4929385;28;19933;-81
2021/09/20 02:42:23;;;;;;;;;;;12.30;99.90;;;;;;4930640;29;19927;-81
2021/09/20 02:44:49;;;;;;;;;;;12.30;99.90;;;;;;4922256;28;19927;-81
2021/09/20 02:47:16;;;;;;;;;;;12.20;99.90;;;;;;4922432;29;20041;-81
2021/09/20 02:49:44;;;;;;;;;;;12.20;99.90;;;;;;4928828;29;19927;-81
2021/09/20 02:52:11;;;;;;;;;;;12.10;99.90;;;;;;4930348;29;19927;-80
2021/09/20 02:54:37;;;;;;;;;;;12.00;99.90;;;;;;4921292;29;19930;-80
2021/09/20 02:57:04;;;;;;;;;;;12.00;99.90;;;;;;4920937;28;19931;-80
2021/09/20 02:59:31;;;;;;;;;;;12.00;99.90;;;;;;4926464;29;19943;-80
2021/09/20 03:01:57;;;;;;;;;;;12.00;99.90;;;;;;4929599;28;20014;-80
2021/09/20 03:04:24;;;;;;;;;;;12.00;99.90;;;;;;4929087;29;19934;-80
2021/09/20 03:06:52;;;;;;;;;;;12.00;99.90;;;;;;4929753;29;20029;-80
2021/09/20 03:09:19;;;;;;;;;;;12.00;99.90;;;;;;4927549;28;19933;-81
2021/09/20 03:11:45;;;;;;;;;;;12.00;99.90;;;;;;4929918;29;19966;-80
2021/09/20 03:14:12;;;;;;;;;;;12.00;99.90;;;;;;4930772;29;20399;-79
2021/09/20 03:16:39;;;;;;;;;;;12.00;99.90;;;;;;4926936;29;19927;-80
2021/09/20 03:19:05;;;;;;;;;;;12.00;99.90;;;;;;4925466;28;19933;-80
2021/09/20 03:21:32;;;;;;;;;;;12.00;99.90;;;;;;4928013;29;20013;-80
2021/09/20 03:24:01;;;;;;;;;;;12.00;99.90;;;;;;4929732;29;19934;-81
2021/09/20 03:26:28;;;;;;;;;;;12.10;99.90;;;;;;4930708;28;19931;-82
2021/09/20 03:28:55;;;;;;;;;;;12.10;99.90;;;;;;4924594;29;19927;-81
2021/09/20 03:31:21;;;;;;;;;;;12.10;99.90;;;;;;4925458;29;19933;-82
2021/09/20 03:33:48;;;;;;;;;;;12.20;99.90;;;;;;4923051;29;20025;-82
2021/09/20 03:36:15;;;;;;;;;;;12.20;99.90;;;;;;4931790;29;19933;-81
2021/09/20 03:38:41;;;;;;;;;;;12.20;99.90;;;;;;4947655;29;19962;-80
2021/09/20 03:41:09;;;;;;;;;;;12.20;99.90;;;;;;4946407;29;20037;-81
2021/09/20 03:43:36;;;;;;;;;;;12.30;99.90;;;;;;4941667;29;19958;-79
2021/09/20 03:46:03;;;;;;;;;;;12.30;99.90;;;;;;4935503;28;19931;-81
2021/09/20 03:48:29;;;;;;;;;;;12.20;99.90;;;;;;4929864;29;20366;-81
2021/09/20 03:50:56;;;;;;;;;;;12.30;99.90;;;;;;4929118;29;19927;-81
2021/09/20 03:53:23;;;;;;;;;;;12.30;99.90;;;;;;4929142;29;19931;-80
2021/09/20 03:55:49;;;;;;;;;;;12.30;99.90;;;;;;4922968;28;19927;-82
2021/09/20 03:58:17;;;;;;;;;;;12.30;99.90;;;;;;4919279;28;20551;-79
2021/09/20 04:00:44;;;;;;;;;;;12.30;99.90;;;;;;4928102;29;19927;-79
2021/09/20 04:03:11;;;;;;;;;;;12.30;99.90;;;;;;4929040;29;20381;-78
2021/09/20 04:05:38;;;;;;;;;;;12.30;99.90;;;;;;4928241;28;19933;-78
2021/09/20 04:08:04;;;;;;;;;;;12.30;99.90;;;;;;4927155;29;20665;-78
2021/09/20 04:10:31;;;;;;;;;;;12.30;99.90;;;;;;4928576;28;20033;-77
2021/09/20 04:12:58;;;;;;;;;;;12.30;99.90;;;;;;4931000;28;19933;-78
2021/09/20 04:15:26;;;;;;;;;;;12.30;99.90;;;;;;4927891;29;19949;-77
2021/09/20 04:17:53;;;;;;;;;;;12.30;99.90;;;;;;4916556;29;19943;-78
2021/09/20 04:20:20;;;;;;;;;;;12.30;99.90;;;;;;4925988;29;20449;-79
2021/09/20 04:22:47;;;;;;;;;;;12.30;99.90;;;;;;4924532;28;19934;-77
2021/09/20 04:25:14;;;;;;;;;;;12.30;99.90;;;;;;4930531;29;19934;-78
2021/09/20 04:27:41;;;;;;;;;;;12.40;99.90;;;;;;4931258;28;19927;-78
2021/09/20 04:30:08;;;;;;;;;;;12.40;99.90;;;;;;4927577;28;19970;-78
2021/09/20 04:32:36;;;;;;;;;;;12.40;99.90;;;;;;4928740;29;19926;-79
2021/09/20 04:35:03;;;;;;;;;;;12.40;99.90;;;;;;4926380;28;20374;-79
2021/09/20 04:37:30;;;;;;;;;;;12.40;99.90;;;;;;4926754;28;19942;-79
2021/09/20 04:39:56;;;;;;;;;;;12.40;99.90;;;;;;4925315;29;19927;-78
2021/09/20 04:42:23;;;;;;;;;;;12.40;99.90;;;;;;4930439;28;19930;-79
2021/09/20 04:44:50;;;;;;;;;;;12.40;99.90;;;;;;4926174;28;19969;-78
2021/09/20 04:47:17;;;;;;;;;;;12.40;99.90;;;;;;4929808;29;19973;-78
2021/09/20 04:49:45;;;;;;;;;;;12.40;99.90;;;;;;4935592;28;19974;-75
2021/09/20 04:52:12;;;;;;;;;;;12.30;99.90;;;;;;4921037;29;20006;-76
2021/09/20 04:54:38;;;;;;;;;;;12.30;99.90;;;;;;4923447;28;19974;-77
2021/09/20 04:57:05;;;;;;;;;;;12.30;99.90;;;;;;4924738;29;20033;-75
2021/09/20 04:59:32;;;;;;;;;;;12.30;99.90;;;;;;4922804;28;19927;-75
2021/09/20 05:01:58;;;;;;;;;;;12.30;99.90;;;;;;4916928;28;19927;-74
2021/09/20 05:04:25;;;;;;;;;;;12.20;99.90;;;;;;4920423;28;19935;-75
2021/09/20 05:06:53;;;;;;;;;;;12.20;99.90;;;;;;4922565;29;19933;-76
2021/09/20 05:09:20;;;;;;;;;;;12.20;99.90;;;;;;4920027;28;19933;-77
2021/09/20 05:11:46;;;;;;;;;;;12.10;99.90;;;;;;4920809;29;20519;-75
2021/09/20 05:14:13;;;;;;;;;;;12.10;99.90;;;;;;4922221;29;20033;-75
2021/09/20 05:16:40;;;;;;;;;;;12.10;99.90;;;;;;4922922;29;19935;-74
2021/09/20 05:19:07;;;;;;;;;;;12.10;99.90;;;;;;4925800;28;20037;-75
2021/09/20 05:21:33;;;;;;;;;;;12.10;99.90;;;;;;4921127;29;20009;-75
2021/09/20 05:24:01;;;;;;;;;;;12.10;99.90;;;;;;4920986;29;19970;-74
2021/09/20 05:26:28;;;;;;;;;;;12.00;99.90;;;;;;4919907;28;19928;-75
2021/09/20 05:28:55;;;;;;;;;;;12.00;99.90;;;;;;4920870;29;19937;-74
2021/09/20 05:31:21;;;;;;;;;;;12.00;99.90;;;;;;4922317;28;19971;-74
2021/09/20 05:33:49;;;;;;;;;;;12.00;99.90;;;;;;4924696;29;20515;-75
2021/09/20 05:36:15;;;;;;;;;;;12.00;99.90;;;;;;4925320;29;20017;-74
2021/09/20 05:38:42;;;;;;;;;;;12.00;99.90;;;;;;4924911;29;19930;-75
2021/09/20 05:41:10;;;;;;;;;;;12.00;99.90;;;;;;4924926;29;19927;-75
2021/09/20 05:43:37;;;;;;;;;;;11.90;99.90;;;;;;4924543;29;19927;-75
2021/09/20 05:46:03;;;;;;;;;;;11.90;99.90;;;;;;4924313;29;19926;-75
2021/09/20 05:48:30;;;;;;;;;;;11.90;99.90;;;;;;4920696;28;20413;-75
2021/09/20 05:50:58;;;;;;;;;;;11.90;99.90;;;;;;4922592;28;20018;-75
2021/09/20 05:53:24;;;;;;;;;;;11.90;99.90;;;;;;4927273;28;20615;-76
2021/09/20 05:55:51;;;;;;;;;;;11.90;99.90;;;;;;4926544;28;20400;-75
2021/09/20 05:58:19;;;;;;;;;;;11.90;99.90;;;;;;4925116;29;19934;-75
2021/09/20 06:00:46;;;;;;;;;;;11.80;99.90;;;;;;4921474;28;19930;-75
2021/09/20 06:03:13;;;;;;;;;;;11.80;99.90;;;;;;4927439;29;19941;-75
2021/09/20 06:05:41;;;;;;;;;;;11.80;99.90;;;;;;4927573;28;19993;-75
2021/09/20 06:08:08;;;;;;;;;;;11.80;99.90;;;;;;4923444;28;19937;-75
2021/09/20 06:10:35;;;;;;;;;;;11.80;99.90;;;;;;4923571;29;19926;-75
2021/09/20 06:13:03;;;;;;;;;;;11.90;99.90;;;;;;4927412;28;19997;-75
2021/09/20 06:15:31;;;;;;;;;;;11.90;99.90;;;;;;4927748;29;19931;-75
2021/09/20 06:17:58;;;;;;;;;;;12.00;99.90;;;;;;4926353;29;19939;-75
2021/09/20 06:20:25;;;;;;;;;;;12.00;99.90;;;;;;4923608;28;20013;-75
2021/09/20 06:22:51;;;;;;;;;;;12.00;99.90;;;;;;4926927;28;19927;-74
2021/09/20 06:25:18;;;;;;;;;;;12.00;99.90;;;;;;4924678;29;19942;-73
2021/09/20 06:27:45;;;;;;;;;;;12.00;99.90;;;;;;4926567;29;19963;-74
2021/09/20 06:30:13;;;;;;;;;;;12.10;99.90;;;;;;4925113;28;20026;-75
2021/09/20 06:32:41;;;;;;;;;;;12.10;99.90;;;;;;4926820;28;19934;-76
2021/09/20 06:35:11;;;;;;;;;;;12.20;99.90;;;;;;4923670;28;20378;-75
2021/09/20 06:37:38;;;;;;;;;;;12.20;99.90;;;;;;4927451;28;19981;-76
2021/09/20 06:40:06;;;;;;;;;;;12.30;99.90;;;;;;4925155;29;20425;-75
2021/09/20 06:42:33;;;;;;;;;;;12.30;99.90;;;;;;4928534;28;19941;-75
2021/09/20 06:45:00;;;;;;;;;;;12.40;99.90;;;;;;4927992;28;19934;-76
2021/09/20 06:47:26;;;;;;;;;;;12.40;99.90;;;;;;4928426;29;19937;-76
2021/09/20 06:49:54;;;;;;;;;;;12.40;99.90;;;;;;4924046;28;20361;-76
2021/09/20 06:52:21;;;;;;;;;;;12.50;99.90;;;;;;4928316;28;19926;-75
2021/09/20 06:54:48;;;;;;;;;;;12.60;99.90;;;;;;4925487;29;19931;-77
2021/09/20 06:57:14;;;;;;;;;;;12.60;99.90;;;;;;4926494;29;20304;-75
2021/09/20 06:59:41;;;;;;;;;;;12.60;99.90;;;;;;4924632;29;19935;-75
2021/09/20 07:02:08;;;;;;;;;;;12.70;99.90;;;;;;4922687;28;19935;-75
2021/09/20 07:04:34;;;;;;;;;;;12.60;99.90;;;;;;4927810;29;19935;-76
2021/09/20 07:07:03;;;;;;;;;;;12.80;99.90;;;;;;4926353;29;19945;-76
2021/09/20 07:09:29;;;;;;;;;;;12.70;99.90;;;;;;4927153;28;19941;-75
2021/09/20 07:11:56;;;;;;;;;;;12.70;99.90;;;;;;4919113;28;20026;-76
2021/09/20 07:14:23;;;;;;;;;;;12.80;99.90;;;;;;4929080;29;20025;-76
2021/09/20 07:16:49;;;;;;;;;;;12.80;99.90;;;;;;4926115;28;19927;-76
2021/09/20 07:19:16;;;;;;;;;;;12.90;99.90;;;;;;4923411;28;19966;-76
2021/09/20 07:21:44;;;;;;;;;;;12.90;99.90;;;;;;4926063;28;19927;-75
2021/09/20 07:24:12;;;;;;;;;;;12.90;99.90;;;;;;4924068;28;20025;-75
2021/09/20 07:26:38;;;;;;;;;;;13.00;99.90;;;;;;4924744;29;19931;-76
2021/09/20 07:29:05;;;;;;;;;;;13.20;99.90;;;;;;4927794;29;20023;-74
2021/09/20 07:31:32;;;;;;;;;;;13.50;99.90;;;;;;4926806;28;19977;-76
2021/09/20 07:33:58;;;;;;;;;;;13.70;99.90;;;;;;4929040;29;20341;-75
2021/09/20 07:36:25;;;;;;;;;;;13.80;99.90;;;;;;4926428;28;19931;-75
2021/09/20 07:38:52;;;;;;;;;;;13.70;99.90;;;;;;4927369;29;20394;-73
2021/09/20 07:41:20;;;;;;;;;;;14.00;99.90;;;;;;4924721;28;19935;-75
2021/09/20 07:43:47;;;;;;;;;;;14.40;99.90;;;;;;4926835;28;20396;-75
2021/09/20 07:46:14;;;;;;;;;;;14.60;99.90;;;;;;4925092;29;19931;-75
2021/09/20 07:48:41;;;;;;;;;;;14.70;99.90;;;;;;4927952;29;19926;-75
2021/09/20 07:51:08;;;;;;;;;;;14.60;99.90;;;;;;4924952;28;20021;-75
2021/09/20 07:53:38;;;;;;;;;;;14.50;99.90;;;;;;4925018;28;19931;-75
2021/09/20 07:56:05;;;;;;;;;;;14.60;99.90;;;;;;4925159;29;20310;-75
2021/09/20 07:58:33;;;;;;;;;;;14.50;99.90;;;;;;4926130;28;19927;-75
2021/09/20 08:01:00;;;;;;;;;;;14.30;99.90;;;;;;4923353;28;19933;-75
2021/09/20 08:03:27;;;;;;;;;;;14.30;99.90;;;;;;4920321;28;20045;-75
2021/09/20 08:05:54;;;;;;;;;;;14.40;99.90;;;;;;4922518;28;19931;-75
2021/09/20 08:08:21;;;;;;;;;;;14.50;99.90;;;;;;4925325;29;20360;-75
2021/09/20 08:10:48;;;;;;;;;;;14.50;99.90;;;;;;4921580;28;19927;-76
2021/09/20 08:13:15;;;;;;;;;;;14.40;99.90;;;;;;4926008;28;20404;-75
2021/09/20 08:15:44;;;;;;;;;;;14.60;99.90;;;;;;4923142;28;20017;-76
2021/09/20 08:18:10;;;;;;;;;;;14.60;99.90;;;;;;4918437;28;19927;-74
2021/09/20 08:20:37;;;;;;;;;;;14.60;99.90;;;;;;4920936;28;20398;-76
2021/09/20 08:23:04;;;;;;;;;;;14.90;99.90;;;;;;4916302;28;19935;-78
2021/09/20 08:25:31;;;;;;;;;;;14.90;99.90;;;;;;4920795;29;19937;-78
2021/09/20 08:27:58;;;;;;;;;;;14.60;99.90;;;;;;4925249;29;20342;-80
2021/09/20 08:30:25;;;;;;;;;;;14.70;99.90;;;;;;4924769;29;19957;-80
2021/09/20 08:32:53;;;;;;;;;;;14.70;99.90;;;;;;4924117;28;19927;-74
2021/09/20 08:35:20;;;;;;;;;;;14.70;99.90;;;;;;4925065;28;20313;-78
2021/09/20 08:37:48;;;;;;;;;;;15.00;99.90;;;;;;4923569;28;19953;-78
2021/09/20 08:40:15;;;;;;;;;;;15.60;99.90;;;;;;4922097;28;19937;-78
2021/09/20 08:42:42;;;;;;;;;;;15.10;99.90;;;;;;4922160;28;19958;-79
2021/09/20 08:45:12;;;;;;;;;;;14.70;99.90;;;;;;4920721;28;19935;-76
2021/09/20 08:47:40;;;;;;;;;;;14.50;99.90;;;;;;4922067;29;20018;-75
2021/09/20 08:50:10;;;;;;;;;;;14.60;99.90;;;;;;4923370;28;20014;-78
2021/09/20 08:52:37;;;;;;;;;;;14.70;99.90;;;;;;4922992;28;19935;-79
2021/09/20 08:55:04;;;;;;;;;;;14.60;99.90;;;;;;4925874;29;20005;-79
2021/09/20 08:57:31;;;;;;;;;;;14.60;99.90;;;;;;4925360;28;19973;-78
2021/09/20 08:59:58;;;;;;;;;;;14.60;99.90;;;;;;4920272;29;19927;-78
2021/09/20 09:02:25;;;;;;;;;;;15.00;99.90;;;;;;4923534;28;19974;-76
2021/09/20 09:04:52;;;;;;;;;;;15.40;99.90;;;;;;4931493;28;20017;-77
2021/09/20 09:07:21;;;;;;;;;;;15.90;99.90;;;;;;4925897;28;19941;-75
2021/09/20 09:09:48;;;;;;;;;;;16.30;99.90;;;;;;4924152;29;19927;-78
2021/09/20 09:12:18;;;;;;;;;;;16.00;99.90;;;;;;4927920;28;19970;-76
2021/09/20 09:14:46;;;;;;;;;;;15.70;99.90;;;;;;4927181;29;19981;-75
2021/09/20 09:17:14;;;;;;;;;;;15.30;99.90;;;;;;4924487;29;20420;-76
2021/09/20 09:19:45;;;;;;;;;;;15.40;99.90;;;;;;4926943;29;19942;-78
2021/09/20 09:22:12;;;;;;;;;;;15.70;99.90;;;;;;4925528;28;19927;-77
2021/09/20 09:24:52;;;;;;;;;;;15.60;99.90;;;;;;4925577;28;19931;-80
2021/09/20 09:27:20;;;;;;;;;;;16.00;99.90;;;;;;4927944;28;20297;-80
2021/09/20 09:29:47;;;;;;;;;;;16.70;99.90;;;;;;4923221;29;20449;-83
2021/09/20 09:32:17;;;;;;;;;;;16.90;99.90;;;;;;4931918;28;20002;-84
2021/09/20 09:34:52;;;;;;;;;;;16.70;99.90;;;;;;4929892;28;19927;-81
2021/09/20 09:37:19;;;;;;;;;;;16.60;99.90;;;;;;4926373;28;19971;-82
2021/09/20 09:39:47;;;;;;;;;;;16.80;99.90;;;;;;4924874;28;19933;-81
2021/09/20 09:42:22;;;;;;;;;;;17.40;99.90;;;;;;4926207;28;20029;-79
2021/09/20 09:44:50;;;;;;;;;;;16.90;99.90;;;;;;4924220;28;19965;-79
2021/09/20 09:47:23;;;;;;;;;;;16.50;99.90;;;;;;4946389;28;19935;-79
2021/09/20 09:50:10;;;;;;;;;;;16.40;99.90;;;;;;4930782;28;19927;-80
2021/09/20 09:52:37;;;;;;;;;;;16.50;99.90;;;;;;4931244;28;19927;-77
2021/09/20 09:55:06;;;;;;;;;;;16.30;99.90;;;;;;4942713;28;19936;-77
2021/09/20 09:57:33;;;;;;;;;;;16.10;99.90;;;;;;4922720;28;19966;-74
2021/09/20 10:00:01;;;;;;;;;;;15.80;99.90;;;;;;4923912;29;19942;-76
2021/09/20 10:02:30;;;;;;;;;;;16.00;99.90;;;;;;4924003;28;19934;-79
2021/09/20 10:04:58;;;;;;;;;;;16.40;99.90;;;;;;4925111;28;19934;-78
2021/09/20 10:07:27;;;;;;;;;;;16.20;99.90;;;;;;4927262;28;19935;-79
2021/09/20 10:09:55;;;;;;;;;;;16.00;99.90;;;;;;4925571;29;19933;-78
2021/09/20 10:12:34;;;;;;;;;;;16.30;99.90;;;;;;4926675;28;19970;-78
2021/09/20 10:15:02;;;;;;;;;;;16.90;99.90;;;;;;4925259;29;19934;-80
2021/09/20 10:17:29;;;;;;;;;;;16.40;99.90;;;;;;4928605;29;19927;-80
2021/09/20 10:19:56;;;;;;;;;;;16.30;99.90;;;;;;4920147;28;20455;-79
2021/09/20 10:22:24;;;;;;;;;;;16.20;99.90;;;;;;4929326;28;19927;-78
2021/09/20 10:24:51;;;;;;;;;;;16.20;99.90;;;;;;4923897;29;20038;-79
2021/09/20 10:27:20;;;;;;;;;;;16.40;99.90;;;;;;4922378;28;20013;-79
2021/09/20 10:29:50;;;;;;;;;;;16.10;99.90;;;;;;4924007;29;20028;-79
2021/09/20 10:32:17;;;;;;;;;;;16.30;99.90;;;;;;4927203;29;19935;-79
2021/09/20 10:34:44;;;;;;;;;;;16.10;99.90;;;;;;4923384;29;19949;-79
2021/09/20 10:37:12;;;;;;;;;;;16.10;99.90;;;;;;4926158;29;19926;-79
2021/09/20 10:39:45;;;;;;;;;;;16.40;99.90;;;;;;4921717;28;20069;-79
2021/09/20 10:42:12;;;;;;;;;;;16.10;99.90;;;;;;4921278;28;19935;-81
2021/09/20 10:44:39;;;;;;;;;;;16.60;99.90;;;;;;4921526;28;20309;-79
2021/09/20 10:47:14;;;;;;;;;;;16.60;99.90;;;;;;4924587;28;20412;-83
2021/09/20 10:49:48;;;;;;;;;;;16.80;99.90;;;;;;4917777;28;20333;-82
2021/09/20 10:52:14;;;;;;;;;;;16.90;99.90;;;;;;4928538;28;19927;-79
2021/09/20 10:54:41;;;;;;;;;;;17.20;99.90;;;;;;4930412;28;19966;-79
2021/09/20 10:57:11;;;;;;;;;;;16.90;99.90;;;;;;4925470;28;19937;-80
2021/09/20 10:59:38;;;;;;;;;;;17.60;99.90;;;;;;4925783;28;19927;-79
2021/09/20 11:02:06;;;;;;;;;;;17.30;99.90;;;;;;4926130;28;19931;-80
2021/09/20 11:04:37;;;;;;;;;;;17.10;99.90;;;;;;4924150;29;19931;-78
2021/09/20 11:07:11;;;;;;;;;;;17.20;99.90;;;;;;4921332;28;20291;-79
2021/09/20 11:09:52;;;;;;;;;;;17.40;99.90;;;;;;4921444;29;19935;-78
2021/09/20 11:12:20;;;;;;;;;;;17.50;99.90;;;;;;4921819;28;20054;-78
2021/09/20 11:14:51;;;;;;;;;;;17.70;99.90;;;;;;4921897;28;19981;-78
2021/09/20 11:17:19;;;;;;;;;;;17.30;99.90;;;;;;4924651;29;19928;-78
2021/09/20 11:19:49;;;;;;;;;;;17.20;99.90;;;;;;4916766;29;19931;-79
2021/09/20 11:22:19;;;;;;;;;;;16.90;99.90;;;;;;4924821;28;19927;-79
2021/09/20 11:24:47;;;;;;;;;;;17.00;99.90;;;;;;4923695;28;20018;-77
2021/09/20 11:27:15;;;;;;;;;;;17.20;99.90;;;;;;4921655;28;19942;-75
2021/09/20 11:29:42;;;;;;;;;;;17.10;99.90;;;;;;4921918;29;19969;-76
2021/09/20 11:32:09;;;;;;;;;;;17.20;99.90;;;;;;4921857;28;20026;-76
2021/09/20 11:34:36;;;;;;;;;;;17.50;99.90;;;;;;4923186;28;19933;-78
2021/09/20 11:37:14;;;;;;;;;;;17.40;99.90;;;;;;4927356;29;19933;-78
2021/09/20 11:39:45;;;;;;;;;;;17.80;99.90;;;;;;4926497;29;20382;-78
2021/09/20 11:42:13;;;;;;;;;;;18.30;99.90;;;;;;4927092;28;19927;-78
2021/09/20 11:44:46;;;;;;;;;;;18.60;99.90;;;;;;4926340;29;20674;-78
2021/09/20 11:47:13;;;;;;;;;;;18.10;99.90;;;;;;4931173;28;19931;-78
2021/09/20 11:49:40;;;;;;;;;;;18.20;99.90;;;;;;4922914;29;19933;-78
2021/09/20 11:52:07;;;;;;;;;;;18.40;99.50;;;;;;4924600;28;19941;-77
2021/09/20 11:54:36;;;;;;;;;;;18.30;99.40;;;;;;4927635;28;20300;-77
2021/09/20 11:57:13;;;;;;;;;;;18.20;99.60;;;;;;4924590;29;19927;-77
2021/09/20 11:59:39;;;;;;;;;;;18.20;99.20;;;;;;4922070;28;19970;-78
2021/09/20 12:02:06;;;;;;;;;;;18.40;98.60;;;;;;4923198;28;19927;-77
2021/09/20 12:04:46;;;;;;;;;;;18.40;99.30;;;;;;4931014;29;20404;-78
2021/09/20 12:07:25;;;;;;;;;;;18.40;98.60;;;;;;4926183;29;19934;-78
2021/09/20 12:09:53;;;;;;;;;;;18.50;97.90;;;;;;4922265;29;19931;-78
2021/09/20 12:12:21;;;;;;;;;;;18.50;97.50;;;;;;4923101;28;20141;-77
2021/09/20 12:14:55;;;;;;;;;;;18.60;97.10;;;;;;4924194;29;19927;-78
2021/09/20 12:17:22;;;;;;;;;;;19.00;96.20;;;;;;4926564;29;20286;-78
2021/09/20 12:19:55;;;;;;;;;;;19.00;94.60;;;;;;4923561;29;19933;-78
2021/09/20 12:22:37;;;;;;;;;;;18.80;95.80;;;;;;4925315;28;19927;-77
2021/09/20 12:25:19;;;;;;;;;;;19.20;95.70;;;;;;4926123;29;19927;-77
2021/09/20 12:27:47;;;;;;;;;;;19.60;94.60;;;;;;4923815;29;19937;-78
2021/09/20 12:30:14;;;;;;;;;;;19.50;94.20;;;;;;4924827;29;19931;-77
2021/09/20 12:32:41;;;;;;;;;;;18.90;94.90;;;;;;4920875;28;19927;-77
2021/09/20 12:35:10;;;;;;;;;;;18.90;94.70;;;;;;4931874;28;20578;-76
2021/09/20 12:37:37;;;;;;;;;;;18.20;96.60;;;;;;4923035;29;20366;-77
2021/09/20 12:40:14;;;;;;;;;;;18.00;96.50;;;;;;4925278;29;19941;-77
2021/09/20 12:42:41;;;;;;;;;;;17.50;96.70;;;;;;4925811;28;19931;-77
2021/09/20 12:45:18;;;;;;;;;;;17.80;97.00;;;;;;4926957;28;19931;-78
2021/09/20 12:47:55;;;;;;;;;;;17.70;96.80;;;;;;4920376;28;19937;-78
2021/09/20 12:50:21;;;;;;;;;;;17.70;96.70;;;;;;4921917;28;19934;-76
2021/09/20 12:52:55;;;;;;;;;;;17.90;96.70;;;;;;4920417;28;20034;-79
2021/09/20 12:55:32;;;;;;;;;;;18.10;96.40;;;;;;4919487;29;20674;-77
2021/09/20 12:57:58;;;;;;;;;;;18.20;96.90;;;;;;4922252;29;19970;-77
2021/09/20 13:00:32;;;;;;;;;;;18.10;96.60;;;;;;4919890;28;20029;-78
2021/09/20 13:03:06;;;;;;;;;;;18.20;95.30;;;;;;4922233;28;19934;-77
2021/09/20 13:05:40;;;;;;;;;;;18.20;95.70;;;;;;4920474;28;19989;-78
2021/09/20 13:08:06;;;;;;;;;;;18.50;95.80;;;;;;4920000;29;19935;-75
2021/09/20 13:10:33;;;;;;;;;;;18.00;95.30;;;;;;4922687;28;19930;-77
2021/09/20 13:13:00;;;;;;;;;;;18.20;96.50;;;;;;4925524;28;19941;-75
2021/09/20 13:15:29;;;;;;;;;;;18.30;95.80;;;;;;4921844;29;20397;-81
2021/09/20 13:17:58;;;;;;;;;;;18.50;96.80;;;;;;4925899;28;20020;-82
2021/09/20 13:20:27;;;;;;;;;;;18.50;95.60;;;;;;4921353;29;19973;-78
2021/09/20 13:22:55;;;;;;;;;;;18.70;95.70;;;;;;4921049;28;20900;-80
2021/09/20 13:25:23;;;;;;;;;;;18.70;95.10;;;;;;4922356;29;20270;-80
2021/09/20 13:27:55;;;;;;;;;;;18.60;95.10;;;;;;4921648;29;19938;-80
2021/09/20 13:30:22;;;;;;;;;;;18.50;95.90;;;;;;4921464;28;19927;-78
2021/09/20 13:32:50;;;;;;;;;;;18.80;95.00;;;;;;4921138;28;19989;-81
2021/09/20 13:35:26;;;;;;;;;;;18.90;95.60;;;;;;4923234;29;19935;-82
2021/09/20 13:37:56;;;;;;;;;;;18.50;94.40;;;;;;4924899;29;20098;-80
2021/09/20 13:40:22;;;;;;;;;;;18.70;95.00;;;;;;4925550;29;19931;-78
2021/09/20 13:42:51;;;;;;;;;;;18.80;95.60;;;;;;4928529;28;20318;-82
2021/09/20 13:45:20;;;;;;;;;;;18.60;94.90;;;;;;4952574;28;19958;-84
2021/09/20 13:47:47;;;;;;;;;;;18.60;95.00;;;;;;4925967;29;19934;-81
2021/09/20 13:50:14;;;;;;;;;;;18.60;94.70;;;;;;4927360;29;20453;-82
2021/09/20 13:52:42;;;;;;;;;;;18.40;95.20;;;;;;4923705;28;19971;-83
2021/09/20 13:55:11;;;;;;;;;;;18.40;95.00;;;;;;4925630;28;20026;-81
2021/09/20 13:57:38;;;;;;;;;;;18.70;95.50;;;;;;4927332;29;19946;-82
2021/09/20 14:00:06;;;;;;;;;;;18.80;94.80;;;;;;4928540;28;20417;-80
2021/09/20 14:02:32;;;;;;;;;;;18.70;94.90;;;;;;4926269;28;19937;-80
2021/09/20 14:05:00;;;;;;;;;;;18.70;93.90;;;;;;4924377;28;19974;-82
2021/09/20 14:07:26;;;;;;;;;;;18.60;94.90;;;;;;4926807;29;20479;-81
2021/09/20 14:09:54;;;;;;;;;;;18.60;94.40;;;;;;4929887;28;19973;-79
2021/09/20 14:12:21;;;;;;;;;;;18.70;94.70;;;;;;4924598;28;19930;-81
2021/09/20 14:14:48;;;;;;;;;;;18.60;94.60;;;;;;4927185;29;19977;-83
2021/09/20 14:17:15;;;;;;;;;;;18.60;95.80;;;;;;4925680;28;19949;-82
2021/09/20 14:19:42;;;;;;;;;;;18.50;93.90;;;;;;4929036;29;20113;-80